Butler, GA

2:54 PM EDT on August 23, 2017 (GMT -0400)
Potterville | | Change Station

Elev 420 ft 32.52 °N, 84.12 °W | Updated 12 minutes ago

Partly Cloudy
Partly Cloudy
91.0 °F
Feels Like 100 °F
N
3.0
Wind Variable Wind from West
Gusts 11.0 mph

Today
High -- | Low -- °F
--% Chance of Precip.
Yesterday
High -- | Low -- °F
Precip. -- in
Pressure 29.96 in
Visibility 10.0 miles
Clouds Scattered Clouds 4200 ft
Mostly Cloudy 5500 ft
Overcast 8500 ft
Heat Index 100 °F
Dew Point 73 °F
Humidity 56%
Rainfall 0.00 in
Snow Depth Not available.
7:06 AM 8:12 PM
Waxing Crescent, 5% visible
METAR KOPN 231835Z AUTO 32006KT 10SM SCT042 BKN055 OVC085 31/18 A2996 RMK AO2
Pressure 29.96 in
Visibility 10.0 miles
Clouds Scattered Clouds 4200 ft
Mostly Cloudy 5500 ft
Overcast 8500 ft
Heat Index 100 °F
Dew Point 73 °F
Humidity 56%
Rainfall 0.00 in
Snow Depth Not available.
7:06 AM 8:12 PM
Waxing Crescent, 5% visible
METAR KOPN 231835Z AUTO 32006KT 10SM SCT042 BKN055 OVC085 31/18 A2996 RMK AO2

Get Severe Weather Alerts

Thanks for signing up!

Be on the lookout for a verification email in your inbox.

You'll start receiving the daily forecast at 6 AM.

×

10-Day Weather Forecast

Almanac

Astronomy

Aug. 23, 2017 Rise Set
Actual Time
Civil Twilight
Nautical Twilight
Astronomical Twilight
Moon
Length of Visible Light
Length of Day
Tomorrow will be .
, % of the Moon is Illuminated

Today's Extremes

State Highs State Lows

Community

WunderPhotos

Category 6

Welcome to Category 6. This is the collective home for Weather Underground's featured writeups by Dr. Jeff Masters (right), Bob Henson (left), Chris Burt, and other regular contributors.

Nearby

Air Quality

  Air Quality AQ Index Pollutant
Not available.

Snow Depth

Station Depth Elevation

Earthquake Activity

City Distance Mag. Time & Date
Minimum magnitude displayed is 2.5.

Coastal Water Temperatures

Place Temperature

Stations

Nearby Weather Stations

Station Location Temp. Windchill Dew Point Humidity Wind Precip. Elev Updated Type
                   

Watches & Warnings

There are currently no watches in effect.